AKDT,Max TemperatureF,Mean TemperatureF,Min TemperatureF,Max Dew PointF,MeanDew PointF,Min DewpointF,Max Humidity, Mean Humidity, Min Humidity, Max Sea Level PressureIn, Mean Sea Level PressureIn, Min Sea Level PressureIn, Max VisibilityMiles, Mean VisibilityMiles, Min VisibilityMiles, Max Wind SpeedMPH, Mean Wind SpeedMPH, Max Gust SpeedMPH,PrecipitationIn, CloudCover, Events, WindDirDegrees
2013-4-1,37,34,32,34,32,29,100,94,76,30.03,29.88,29.80,10,4,1,10,3,23,0.31,8,Rain-Snow,98
2013-4-2,43,38,32,34,31,29,92,80,62,30.27,30.16,29.97,10,10,10,13,7,25,0.00,5,,99
2013-4-3,45,37,30,27,25,19,85,65,49,30.29,30.24,30.17,10,10,10,13,9,20,0.00,4,,283
2013-4-4,37,32,28,19,8,-1,61,38,22,30.17,30.06,29.88,10,10,10,14,10,25,0.00,0,,302
2013-4-5,34,28,23,8,5,3,44,37,31,29.87,29.73,29.63,10,10,10,16,9,22,0.00,1,,289
2013-4-6,37,30,25,32,19,8,93,64,40,29.73,29.61,29.56,10,10,8,16,10,22,0.00,8,,272
2013-4-7,51,40,30,36,33,29,93,76,50,29.93,29.86,29.73,10,10,10,14,7,21,0.00,2,,105
2013-4-8,45,41,37,37,35,32,93,80,63,29.92,29.74,29.55,10,8,4,21,11,31,0.77,7,Rain,80
2013-4-9,42,37,33,39,34,24,100,85,60,29.66,29.30,29.03,10,6,2,24,16,44,1.11,8,Rain-Snow,94
2013-4-10,37,34,32,30,27,24,93,78,62,30.00,29.87,29.68,10,6,1,18,13,31,0.00,7,Snow,117
2013-4-11,37,34,30,32,28,22,96,78,64,30.09,30.01,29.89,10,8,1,17,11,30,0.02,7,Snow,110
2013-4-12,45,37,30,30,23,14,96,64,32,29.96,29.82,29.76,10,9,2,21,10,31,0.00,4,Snow,292
2013-4-13,45,38,30,15,12,10,46,37,27,30.21,30.10,29.98,10,10,10,21,12,24,0.00,0,,303
2013-4-14,46,38,30,17,15,13,50,39,29,30.36,30.30,30.21,10,10,10,22,15,26,0.00,0,,299
2013-4-15,46,37,28,26,18,13,65,45,31,30.38,30.37,30.35,10,10,10,17,12,22,0.00,0,,321
2013-4-16,39,36,33,34,31,25,100,83,57,30.37,30.22,30.00,10,8,2,15,7,26,0.34,7,Rain-Snow,87
2013-4-17,44,38,33,37,34,32,100,91,73,30.06,29.97,29.90,10,6,1,10,5,17,0.41,7,Rain-Snow,112
2013-4-18,45,38,32,32,27,14,92,65,42,30.06,30.00,29.95,10,10,4,14,8,22,0.01,4,Snow,327
2013-4-19,43,36,30,14,11,8,49,37,28,30.42,30.22,30.06,10,9,3,22,14,29,0.00,1,,296
2013-4-20,45,36,28,16,13,11,49,39,28,30.51,30.48,30.43,10,10,10,18,12,22,0.00,0,,300
2013-4-21,46,36,26,26,19,14,75,52,33,30.54,30.50,30.48,10,10,10,13,8,,0.00,0,,271
2013-4-22,41,34,30,36,31,24,100,86,67,30.69,30.62,30.55,10,9,1,9,3,17,0.06,7,Rain-Snow,122
2013-4-23,44,37,30,34,31,28,100,75,55,30.69,30.59,30.40,10,10,10,13,3,18,0.00,3,,100
2013-4-24,44,42,39,39,37,33,93,84,73,30.37,30.05,29.71,10,10,10,17,10,31,0.00,8,Rain,93
2013-4-25,39,36,33,39,33,32,100,94,92,29.69,29.57,29.55,10,5,1,13,7,23,0.90,8,Rain-Snow,305
2013-4-26,35,32,30,32,30,27,96,89,82,29.57,29.51,29.48,10,5,1,17,13,25,0.00,8,Snow,302
2013-4-27,37,33,30,32,29,23,100,88,61,29.76,29.68,29.50,10,4,1,15,11,22,0.03,8,Snow,300
2013-4-28,36,32,27,29,19,5,96,65,30,30.08,29.81,29.65,10,7,1,17,13,33,0.02,6,Snow,301
2013-4-29,39,32,24,24,13,6,75,49,31,30.26,30.23,30.11,10,10,10,16,8,,0.00,0,,306
2013-4-30,37,32,28,34,28,20,93,83,61,30.26,30.21,30.13,10,6,0,17,8,30,0.03,8,Rain-Snow,94